sensor_id;sensor_type;location;lat;lon;timestamp;P1;durP1;ratioP1;P2;durP2;ratioP2
19671;SDS011;9983;51.114;13.788;2024-02-15T00:03:00;1.67;;;1.58;;
19671;SDS011;9983;51.114;13.788;2024-02-15T00:08:01;3.22;;;1.63;;
19671;SDS011;9983;51.114;13.788;2024-02-15T00:13:01;1.70;;;1.60;;
19671;SDS011;9983;51.114;13.788;2024-02-15T00:18:02;3.25;;;2.50;;
19671;SDS011;9983;51.114;13.788;2024-02-15T00:23:03;1.77;;;1.67;;
19671;SDS011;9983;51.114;13.788;2024-02-15T00:28:03;2.10;;;1.90;;
19671;SDS011;9983;51.114;13.788;2024-02-15T00:33:03;1.90;;;1.80;;
19671;SDS011;9983;51.114;13.788;2024-02-15T00:38:04;8.63;;;2.70;;
19671;SDS011;9983;51.114;13.788;2024-02-15T00:43:04;1.95;;;1.85;;
19671;SDS011;9983;51.114;13.788;2024-02-15T00:48:04;2.05;;;1.88;;
19671;SDS011;9983;51.114;13.788;2024-02-15T00:53:06;2.33;;;2.08;;
19671;SDS011;9983;51.114;13.788;2024-02-15T00:58:06;3.00;;;1.48;;
19671;SDS011;9983;51.114;13.788;2024-02-15T01:03:07;2.10;;;2.00;;
19671;SDS011;9983;51.114;13.788;2024-02-15T01:08:07;2.67;;;1.60;;
19671;SDS011;9983;51.114;13.788;2024-02-15T01:13:08;1.83;;;1.73;;
19671;SDS011;9983;51.114;13.788;2024-02-15T01:18:09;4.30;;;1.75;;
19671;SDS011;9983;51.114;13.788;2024-02-15T01:23:09;1.55;;;1.45;;
19671;SDS011;9983;51.114;13.788;2024-02-15T01:28:09;2.60;;;2.10;;
19671;SDS011;9983;51.114;13.788;2024-02-15T01:33:09;2.08;;;1.73;;
19671;SDS011;9983;51.114;13.788;2024-02-15T01:38:11;1.75;;;1.65;;
19671;SDS011;9983;51.114;13.788;2024-02-15T01:43:11;3.50;;;2.17;;
19671;SDS011;9983;51.114;13.788;2024-02-15T01:48:11;6.55;;;2.42;;
19671;SDS011;9983;51.114;13.788;2024-02-15T01:53:11;3.08;;;2.13;;
19671;SDS011;9983;51.114;13.788;2024-02-15T01:58:12;3.60;;;2.10;;
19671;SDS011;9983;51.114;13.788;2024-02-15T02:03:13;2.08;;;1.88;;
19671;SDS011;9983;51.114;13.788;2024-02-15T02:08:14;4.65;;;2.53;;
19671;SDS011;9983;51.114;13.788;2024-02-15T02:13:14;3.08;;;2.10;;
19671;SDS011;9983;51.114;13.788;2024-02-15T02:18:15;2.45;;;2.00;;
19671;SDS011;9983;51.114;13.788;2024-02-15T02:23:16;2.45;;;2.25;;
19671;SDS011;9983;51.114;13.788;2024-02-15T02:28:18;2.30;;;2.10;;
19671;SDS011;9983;51.114;13.788;2024-02-15T02:33:18;1.90;;;1.80;;
19671;SDS011;9983;51.114;13.788;2024-02-15T02:38:18;1.90;;;1.65;;
19671;SDS011;9983;51.114;13.788;2024-02-15T02:43:18;1.48;;;1.30;;
19671;SDS011;9983;51.114;13.788;2024-02-15T02:48:19;1.70;;;1.60;;
19671;SDS011;9983;51.114;13.788;2024-02-15T02:53:19;1.95;;;1.80;;
19671;SDS011;9983;51.114;13.788;2024-02-15T02:58:19;2.88;;;2.10;;
19671;SDS011;9983;51.114;13.788;2024-02-15T03:03:19;1.75;;;1.63;;
19671;SDS011;9983;51.114;13.788;2024-02-15T03:08:19;4.43;;;1.70;;
19671;SDS011;9983;51.114;13.788;2024-02-15T03:13:20;1.63;;;1.50;;
19671;SDS011;9983;51.114;13.788;2024-02-15T03:18:20;1.70;;;1.60;;
19671;SDS011;9983;51.114;13.788;2024-02-15T03:23:23;2.35;;;1.40;;
19671;SDS011;9983;51.114;13.788;2024-02-15T03:28:24;2.60;;;1.80;;
19671;SDS011;9983;51.114;13.788;2024-02-15T03:33:24;3.85;;;1.58;;
19671;SDS011;9983;51.114;13.788;2024-02-15T03:38:27;1.80;;;1.38;;
19671;SDS011;9983;51.114;13.788;2024-02-15T03:43:29;1.77;;;1.67;;
19671;SDS011;9983;51.114;13.788;2024-02-15T03:48:29;1.80;;;1.70;;
19671;SDS011;9983;51.114;13.788;2024-02-15T03:53:30;2.05;;;1.88;;
19671;SDS011;9983;51.114;13.788;2024-02-15T03:58:33;2.13;;;1.73;;
19671;SDS011;9983;51.114;13.788;2024-02-15T04:03:33;2.08;;;1.98;;
19671;SDS011;9983;51.114;13.788;2024-02-15T04:08:34;2.20;;;2.00;;
19671;SDS011;9983;51.114;13.788;2024-02-15T04:13:35;2.30;;;2.10;;
19671;SDS011;9983;51.114;13.788;2024-02-15T04:18:35;2.03;;;1.83;;
19671;SDS011;9983;51.114;13.788;2024-02-15T04:23:36;1.80;;;1.70;;
19671;SDS011;9983;51.114;13.788;2024-02-15T04:28:36;1.67;;;1.58;;
19671;SDS011;9983;51.114;13.788;2024-02-15T04:33:37;2.03;;;1.80;;
19671;SDS011;9983;51.114;13.788;2024-02-15T04:38:37;2.53;;;1.77;;
19671;SDS011;9983;51.114;13.788;2024-02-15T04:43:38;3.42;;;2.30;;
19671;SDS011;9983;51.114;13.788;2024-02-15T04:48:41;2.72;;;1.70;;
19671;SDS011;9983;51.114;13.788;2024-02-15T04:53:44;2.67;;;2.10;;
19671;SDS011;9983;51.114;13.788;2024-02-15T04:58:46;3.08;;;1.90;;
19671;SDS011;9983;51.114;13.788;2024-02-15T05:03:47;2.17;;;2.00;;
19671;SDS011;9983;51.114;13.788;2024-02-15T05:08:47;3.05;;;2.05;;
19671;SDS011;9983;51.114;13.788;2024-02-15T05:13:47;3.15;;;2.08;;
19671;SDS011;9983;51.114;13.788;2024-02-15T05:18:50;1.50;;;1.40;;
19671;SDS011;9983;51.114;13.788;2024-02-15T05:23:50;1.83;;;1.73;;
19671;SDS011;9983;51.114;13.788;2024-02-15T05:28:52;2.22;;;2.00;;
19671;SDS011;9983;51.114;13.788;2024-02-15T05:33:52;2.25;;;2.05;;
19671;SDS011;9983;51.114;13.788;2024-02-15T05:38:53;2.33;;;1.92;;
19671;SDS011;9983;51.114;13.788;2024-02-15T05:43:54;2.38;;;2.15;;
19671;SDS011;9983;51.114;13.788;2024-02-15T05:48:54;2.15;;;1.60;;
19671;SDS011;9983;51.114;13.788;2024-02-15T05:53:54;1.88;;;1.77;;
19671;SDS011;9983;51.114;13.788;2024-02-15T05:58:58;2.00;;;1.75;;
19671;SDS011;9983;51.114;13.788;2024-02-15T06:03:58;3.75;;;2.08;;
19671;SDS011;9983;51.114;13.788;2024-02-15T06:09:00;1.88;;;1.77;;
19671;SDS011;9983;51.114;13.788;2024-02-15T06:14:01;1.95;;;1.85;;
19671;SDS011;9983;51.114;13.788;2024-02-15T06:19:01;4.38;;;2.15;;
19671;SDS011;9983;51.114;13.788;2024-02-15T06:24:02;4.47;;;3.42;;
19671;SDS011;9983;51.114;13.788;2024-02-15T06:29:02;2.85;;;2.65;;
19671;SDS011;9983;51.114;13.788;2024-02-15T06:34:20;2.35;;;2.15;;
19671;SDS011;9983;51.114;13.788;2024-02-15T06:39:39;2.53;;;2.33;;
19671;SDS011;9983;51.114;13.788;2024-02-15T06:44:42;2.88;;;2.42;;
19671;SDS011;9983;51.114;13.788;2024-02-15T06:49:43;2.45;;;2.25;;
19671;SDS011;9983;51.114;13.788;2024-02-15T06:54:44;3.17;;;2.47;;
19671;SDS011;9983;51.114;13.788;2024-02-15T06:59:46;2.67;;;2.40;;
19671;SDS011;9983;51.114;13.788;2024-02-15T07:04:46;2.50;;;2.22;;
19671;SDS011;9983;51.114;13.788;2024-02-15T07:09:48;2.95;;;2.30;;
19671;SDS011;9983;51.114;13.788;2024-02-15T07:14:49;3.13;;;2.38;;
19671;SDS011;9983;51.114;13.788;2024-02-15T07:19:49;1.92;;;1.70;;
19671;SDS011;9983;51.114;13.788;2024-02-15T07:24:49;1.98;;;1.88;;
19671;SDS011;9983;51.114;13.788;2024-02-15T07:29:49;1.95;;;1.85;;
19671;SDS011;9983;51.114;13.788;2024-02-15T07:34:49;3.50;;;2.20;;
19671;SDS011;9983;51.114;13.788;2024-02-15T07:39:50;3.17;;;1.95;;
19671;SDS011;9983;51.114;13.788;2024-02-15T07:44:50;2.00;;;1.80;;
19671;SDS011;9983;51.114;13.788;2024-02-15T07:49:50;2.80;;;2.10;;
19671;SDS011;9983;51.114;13.788;2024-02-15T07:54:50;1.95;;;1.83;;
19671;SDS011;9983;51.114;13.788;2024-02-15T07:59:52;2.35;;;2.15;;
19671;SDS011;9983;51.114;13.788;2024-02-15T08:04:52;1.75;;;1.63;;
19671;SDS011;9983;51.114;13.788;2024-02-15T08:09:54;4.07;;;1.77;;
19671;SDS011;9983;51.114;13.788;2024-02-15T08:14:54;1.80;;;1.70;;
19671;SDS011;9983;51.114;13.788;2024-02-15T08:19:54;1.55;;;1.45;;
19671;SDS011;9983;51.114;13.788;2024-02-15T08:24:55;2.03;;;1.85;;
19671;SDS011;9983;51.114;13.788;2024-02-15T08:29:56;2.88;;;2.10;;
19671;SDS011;9983;51.114;13.788;2024-02-15T08:34:56;2.20;;;2.00;;
19671;SDS011;9983;51.114;13.788;2024-02-15T08:39:56;2.40;;;2.20;;
19671;SDS011;9983;51.114;13.788;2024-02-15T08:44:57;1.73;;;1.63;;
19671;SDS011;9983;51.114;13.788;2024-02-15T08:49:57;2.60;;;2.40;;
19671;SDS011;9983;51.114;13.788;2024-02-15T08:54:59;2.45;;;2.25;;
19671;SDS011;9983;51.114;13.788;2024-02-15T09:00:03;2.10;;;2.00;;
19671;SDS011;9983;51.114;13.788;2024-02-15T09:05:05;3.03;;;2.10;;
19671;SDS011;9983;51.114;13.788;2024-02-15T09:10:05;2.40;;;2.20;;
19671;SDS011;9983;51.114;13.788;2024-02-15T09:15:07;3.47;;;2.60;;
19671;SDS011;9983;51.114;13.788;2024-02-15T09:20:08;3.70;;;2.03;;
19671;SDS011;9983;51.114;13.788;2024-02-15T09:25:09;2.20;;;1.80;;
19671;SDS011;9983;51.114;13.788;2024-02-15T09:30:10;2.38;;;2.17;;
19671;SDS011;9983;51.114;13.788;2024-02-15T09:35:10;3.63;;;2.33;;
19671;SDS011;9983;51.114;13.788;2024-02-15T09:40:14;2.42;;;2.13;;
19671;SDS011;9983;51.114;13.788;2024-02-15T09:45:16;2.80;;;2.45;;
19671;SDS011;9983;51.114;13.788;2024-02-15T09:50:17;3.08;;;2.15;;
19671;SDS011;9983;51.114;13.788;2024-02-15T09:55:17;2.10;;;1.80;;
19671;SDS011;9983;51.114;13.788;2024-02-15T10:00:18;3.30;;;2.03;;
19671;SDS011;9983;51.114;13.788;2024-02-15T10:05:18;1.90;;;1.80;;
19671;SDS011;9983;51.114;13.788;2024-02-15T10:10:22;2.20;;;2.00;;
19671;SDS011;9983;51.114;13.788;2024-02-15T10:15:30;3.20;;;2.10;;
19671;SDS011;9983;51.114;13.788;2024-02-15T10:20:30;2.00;;;1.90;;
19671;SDS011;9983;51.114;13.788;2024-02-15T10:25:31;2.03;;;1.83;;
19671;SDS011;9983;51.114;13.788;2024-02-15T10:30:31;2.60;;;2.00;;
19671;SDS011;9983;51.114;13.788;2024-02-15T10:35:32;1.92;;;1.67;;
19671;SDS011;9983;51.114;13.788;2024-02-15T10:40:36;4.53;;;1.95;;
19671;SDS011;9983;51.114;13.788;2024-02-15T10:45:37;2.47;;;2.28;;
19671;SDS011;9983;51.114;13.788;2024-02-15T10:50:39;2.08;;;1.88;;
19671;SDS011;9983;51.114;13.788;2024-02-15T10:55:52;2.15;;;1.70;;
19671;SDS011;9983;51.114;13.788;2024-02-15T11:00:53;2.13;;;1.92;;
19671;SDS011;9983;51.114;13.788;2024-02-15T11:05:53;2.35;;;2.15;;
19671;SDS011;9983;51.114;13.788;2024-02-15T11:10:55;3.67;;;2.10;;
19671;SDS011;9983;51.114;13.788;2024-02-15T11:15:58;2.83;;;2.15;;
19671;SDS011;9983;51.114;13.788;2024-02-15T11:20:59;3.55;;;2.13;;
19671;SDS011;9983;51.114;13.788;2024-02-15T11:26:00;2.00;;;1.85;;
19671;SDS011;9983;51.114;13.788;2024-02-15T11:31:00;2.35;;;2.15;;
19671;SDS011;9983;51.114;13.788;2024-02-15T11:36:06;2.05;;;1.85;;
19671;SDS011;9983;51.114;13.788;2024-02-15T11:41:07;2.65;;;2.15;;
19671;SDS011;9983;51.114;13.788;2024-02-15T11:46:16;3.50;;;2.67;;
19671;SDS011;9983;51.114;13.788;2024-02-15T11:51:31;2.42;;;2.20;;
19671;SDS011;9983;51.114;13.788;2024-02-15T11:56:55;2.20;;;2.05;;
19671;SDS011;9983;51.114;13.788;2024-02-15T12:02:15;4.18;;;2.65;;
19671;SDS011;9983;51.114;13.788;2024-02-15T12:07:34;5.00;;;3.03;;
19671;SDS011;9983;51.114;13.788;2024-02-15T12:12:55;5.10;;;3.58;;
19671;SDS011;9983;51.114;13.788;2024-02-15T12:18:15;4.93;;;3.38;;
19671;SDS011;9983;51.114;13.788;2024-02-15T12:23:33;5.53;;;3.40;;
19671;SDS011;9983;51.114;13.788;2024-02-15T12:28:35;3.22;;;2.92;;
19671;SDS011;9983;51.114;13.788;2024-02-15T12:33:36;2.90;;;2.70;;
19671;SDS011;9983;51.114;13.788;2024-02-15T12:38:37;3.15;;;2.85;;
19671;SDS011;9983;51.114;13.788;2024-02-15T12:43:38;3.13;;;2.83;;
19671;SDS011;9983;51.114;13.788;2024-02-15T12:48:38;5.75;;;3.10;;
19671;SDS011;9983;51.114;13.788;2024-02-15T12:53:41;2.95;;;2.75;;
19671;SDS011;9983;51.114;13.788;2024-02-15T12:58:43;4.05;;;2.97;;
19671;SDS011;9983;51.114;13.788;2024-02-15T13:03:44;3.47;;;3.00;;
19671;SDS011;9983;51.114;13.788;2024-02-15T13:08:45;3.72;;;2.50;;
19671;SDS011;9983;51.114;13.788;2024-02-15T13:13:48;4.10;;;2.75;;
19671;SDS011;9983;51.114;13.788;2024-02-15T13:18:48;5.00;;;2.53;;
19671;SDS011;9983;51.114;13.788;2024-02-15T13:23:49;3.38;;;2.80;;
19671;SDS011;9983;51.114;13.788;2024-02-15T13:28:49;2.65;;;2.30;;
19671;SDS011;9983;51.114;13.788;2024-02-15T13:33:49;2.40;;;2.13;;
19671;SDS011;9983;51.114;13.788;2024-02-15T13:38:49;3.53;;;2.30;;
19671;SDS011;9983;51.114;13.788;2024-02-15T13:43:51;2.13;;;1.95;;
19671;SDS011;9983;51.114;13.788;2024-02-15T13:48:51;2.65;;;2.10;;
19671;SDS011;9983;51.114;13.788;2024-02-15T13:53:51;2.10;;;1.90;;
19671;SDS011;9983;51.114;13.788;2024-02-15T13:58:52;2.10;;;1.92;;
19671;SDS011;9983;51.114;13.788;2024-02-15T14:03:52;1.98;;;1.88;;
19671;SDS011;9983;51.114;13.788;2024-02-15T14:08:53;1.92;;;1.80;;
19671;SDS011;9983;51.114;13.788;2024-02-15T14:13:53;2.47;;;1.70;;
19671;SDS011;9983;51.114;13.788;2024-02-15T14:18:58;1.75;;;1.40;;
19671;SDS011;9983;51.114;13.788;2024-02-15T14:23:59;1.45;;;1.35;;
19671;SDS011;9983;51.114;13.788;2024-02-15T14:28:59;1.25;;;1.25;;
19671;SDS011;9983;51.114;13.788;2024-02-15T14:34:03;1.55;;;1.45;;
19671;SDS011;9983;51.114;13.788;2024-02-15T14:39:03;1.08;;;1.08;;
19671;SDS011;9983;51.114;13.788;2024-02-15T14:44:04;3.95;;;1.60;;
19671;SDS011;9983;51.114;13.788;2024-02-15T14:49:05;1.20;;;1.10;;
19671;SDS011;9983;51.114;13.788;2024-02-15T14:54:06;3.25;;;1.15;;
19671;SDS011;9983;51.114;13.788;2024-02-15T14:59:06;1.13;;;0.98;;
19671;SDS011;9983;51.114;13.788;2024-02-15T15:04:07;0.98;;;0.90;;
19671;SDS011;9983;51.114;13.788;2024-02-15T15:09:10;0.77;;;0.77;;
19671;SDS011;9983;51.114;13.788;2024-02-15T15:14:29;2.35;;;1.20;;
19671;SDS011;9983;51.114;13.788;2024-02-15T15:19:29;1.95;;;1.40;;
19671;SDS011;9983;51.114;13.788;2024-02-15T15:24:29;3.05;;;1.60;;
19671;SDS011;9983;51.114;13.788;2024-02-15T15:29:29;2.30;;;1.83;;
19671;SDS011;9983;51.114;13.788;2024-02-15T15:34:30;2.13;;;1.92;;
19671;SDS011;9983;51.114;13.788;2024-02-15T15:39:30;3.22;;;1.75;;
19671;SDS011;9983;51.114;13.788;2024-02-15T15:44:34;4.32;;;2.80;;
19671;SDS011;9983;51.114;13.788;2024-02-15T15:49:34;2.65;;;2.45;;
19671;SDS011;9983;51.114;13.788;2024-02-15T15:54:34;2.85;;;2.20;;
19671;SDS011;9983;51.114;13.788;2024-02-15T15:59:34;2.90;;;2.60;;
19671;SDS011;9983;51.114;13.788;2024-02-15T16:04:42;3.50;;;3.20;;
19671;SDS011;9983;51.114;13.788;2024-02-15T16:09:42;5.00;;;4.40;;
19671;SDS011;9983;51.114;13.788;2024-02-15T16:14:44;6.32;;;5.00;;
19671;SDS011;9983;51.114;13.788;2024-02-15T16:19:46;6.55;;;5.20;;
19671;SDS011;9983;51.114;13.788;2024-02-15T16:24:46;6.20;;;5.60;;
19671;SDS011;9983;51.114;13.788;2024-02-15T16:29:47;6.43;;;5.50;;
19671;SDS011;9983;51.114;13.788;2024-02-15T16:34:47;8.60;;;6.38;;
19671;SDS011;9983;51.114;13.788;2024-02-15T16:39:47;6.97;;;5.90;;
19671;SDS011;9983;51.114;13.788;2024-02-15T16:44:47;7.63;;;6.10;;
19671;SDS011;9983;51.114;13.788;2024-02-15T16:49:47;7.93;;;6.78;;
19671;SDS011;9983;51.114;13.788;2024-02-15T16:54:47;8.15;;;7.03;;
19671;SDS011;9983;51.114;13.788;2024-02-15T16:59:49;8.18;;;6.85;;
19671;SDS011;9983;51.114;13.788;2024-02-15T17:04:49;7.95;;;6.25;;
19671;SDS011;9983;51.114;13.788;2024-02-15T17:09:50;8.68;;;6.53;;
19671;SDS011;9983;51.114;13.788;2024-02-15T17:14:50;7.57;;;6.72;;
19671;SDS011;9983;51.114;13.788;2024-02-15T17:19:50;8.40;;;6.78;;
19671;SDS011;9983;51.114;13.788;2024-02-15T17:24:50;8.10;;;7.00;;
19671;SDS011;9983;51.114;13.788;2024-02-15T17:29:51;10.32;;;7.25;;
19671;SDS011;9983;51.114;13.788;2024-02-15T17:34:51;9.23;;;7.55;;
19671;SDS011;9983;51.114;13.788;2024-02-15T17:39:51;9.60;;;6.85;;
19671;SDS011;9983;51.114;13.788;2024-02-15T17:44:51;8.10;;;7.05;;
19671;SDS011;9983;51.114;13.788;2024-02-15T17:49:51;8.10;;;6.82;;
19671;SDS011;9983;51.114;13.788;2024-02-15T17:54:53;10.68;;;7.32;;
19671;SDS011;9983;51.114;13.788;2024-02-15T17:59:53;7.90;;;6.88;;
19671;SDS011;9983;51.114;13.788;2024-02-15T18:04:54;10.93;;;7.13;;
19671;SDS011;9983;51.114;13.788;2024-02-15T18:09:54;10.10;;;8.02;;
19671;SDS011;9983;51.114;13.788;2024-02-15T18:14:54;9.90;;;8.00;;
19671;SDS011;9983;51.114;13.788;2024-02-15T18:19:54;9.13;;;7.68;;
19671;SDS011;9983;51.114;13.788;2024-02-15T18:24:57;8.98;;;8.07;;
19671;SDS011;9983;51.114;13.788;2024-02-15T18:29:57;9.30;;;7.90;;
19671;SDS011;9983;51.114;13.788;2024-02-15T18:34:57;9.38;;;7.55;;
19671;SDS011;9983;51.114;13.788;2024-02-15T18:39:58;11.05;;;7.90;;
19671;SDS011;9983;51.114;13.788;2024-02-15T18:45:04;10.43;;;7.75;;
19671;SDS011;9983;51.114;13.788;2024-02-15T18:50:04;9.60;;;7.65;;
19671;SDS011;9983;51.114;13.788;2024-02-15T18:55:06;11.57;;;8.25;;
19671;SDS011;9983;51.114;13.788;2024-02-15T19:00:06;9.90;;;7.38;;
19671;SDS011;9983;51.114;13.788;2024-02-15T19:05:09;11.82;;;7.75;;
19671;SDS011;9983;51.114;13.788;2024-02-15T19:10:17;10.38;;;7.60;;
19671;SDS011;9983;51.114;13.788;2024-02-15T19:15:19;10.25;;;7.40;;
19671;SDS011;9983;51.114;13.788;2024-02-15T19:20:19;9.65;;;8.25;;
19671;SDS011;9983;51.114;13.788;2024-02-15T19:25:19;9.35;;;8.27;;
19671;SDS011;9983;51.114;13.788;2024-02-15T19:30:20;12.60;;;9.02;;
19671;SDS011;9983;51.114;13.788;2024-02-15T19:35:21;9.32;;;8.43;;
19671;SDS011;9983;51.114;13.788;2024-02-15T19:40:21;10.85;;;9.73;;
19671;SDS011;9983;51.114;13.788;2024-02-15T19:45:21;13.70;;;10.23;;
19671;SDS011;9983;51.114;13.788;2024-02-15T19:50:21;13.95;;;10.63;;
19671;SDS011;9983;51.114;13.788;2024-02-15T19:55:25;14.55;;;10.77;;
19671;SDS011;9983;51.114;13.788;2024-02-15T20:00:26;18.13;;;12.40;;
19671;SDS011;9983;51.114;13.788;2024-02-15T20:05:26;14.32;;;12.13;;
19671;SDS011;9983;51.114;13.788;2024-02-15T20:10:26;15.52;;;13.00;;
19671;SDS011;9983;51.114;13.788;2024-02-15T20:15:26;17.27;;;13.25;;
19671;SDS011;9983;51.114;13.788;2024-02-15T20:20:26;15.15;;;12.85;;
19671;SDS011;9983;51.114;13.788;2024-02-15T20:25:28;18.70;;;14.57;;
19671;SDS011;9983;51.114;13.788;2024-02-15T20:30:28;17.63;;;13.85;;
19671;SDS011;9983;51.114;13.788;2024-02-15T20:35:28;16.55;;;13.13;;
19671;SDS011;9983;51.114;13.788;2024-02-15T20:40:28;19.38;;;14.25;;
19671;SDS011;9983;51.114;13.788;2024-02-15T20:45:29;23.15;;;13.93;;
19671;SDS011;9983;51.114;13.788;2024-02-15T20:50:29;19.20;;;14.70;;
19671;SDS011;9983;51.114;13.788;2024-02-15T20:55:29;23.00;;;15.07;;
19671;SDS011;9983;51.114;13.788;2024-02-15T21:00:32;19.60;;;14.10;;
19671;SDS011;9983;51.114;13.788;2024-02-15T21:05:33;22.73;;;14.32;;
19671;SDS011;9983;51.114;13.788;2024-02-15T21:10:33;21.88;;;14.40;;
19671;SDS011;9983;51.114;13.788;2024-02-15T21:15:33;20.52;;;13.82;;
19671;SDS011;9983;51.114;13.788;2024-02-15T21:20:33;21.70;;;14.25;;
19671;SDS011;9983;51.114;13.788;2024-02-15T21:25:33;23.23;;;13.98;;
19671;SDS011;9983;51.114;13.788;2024-02-15T21:30:34;18.63;;;14.00;;
19671;SDS011;9983;51.114;13.788;2024-02-15T21:35:34;19.17;;;14.23;;
19671;SDS011;9983;51.114;13.788;2024-02-15T21:40:36;18.60;;;13.40;;
19671;SDS011;9983;51.114;13.788;2024-02-15T21:45:36;20.88;;;14.45;;
19671;SDS011;9983;51.114;13.788;2024-02-15T21:50:36;21.00;;;14.23;;
19671;SDS011;9983;51.114;13.788;2024-02-15T21:55:36;16.20;;;12.82;;
19671;SDS011;9983;51.114;13.788;2024-02-15T22:00:37;18.35;;;13.02;;
19671;SDS011;9983;51.114;13.788;2024-02-15T22:05:37;20.67;;;14.23;;
19671;SDS011;9983;51.114;13.788;2024-02-15T22:10:41;18.80;;;13.05;;
19671;SDS011;9983;51.114;13.788;2024-02-15T22:15:41;23.05;;;13.68;;
19671;SDS011;9983;51.114;13.788;2024-02-15T22:20:42;19.25;;;13.43;;
19671;SDS011;9983;51.114;13.788;2024-02-15T22:25:42;18.23;;;12.70;;
19671;SDS011;9983;51.114;13.788;2024-02-15T22:30:42;18.27;;;12.48;;
19671;SDS011;9983;51.114;13.788;2024-02-15T22:35:42;18.00;;;11.90;;
19671;SDS011;9983;51.114;13.788;2024-02-15T22:40:44;17.00;;;12.43;;
19671;SDS011;9983;51.114;13.788;2024-02-15T22:45:45;19.48;;;12.70;;
19671;SDS011;9983;51.114;13.788;2024-02-15T22:50:46;15.18;;;11.27;;
19671;SDS011;9983;51.114;13.788;2024-02-15T22:55:46;17.02;;;11.95;;
19671;SDS011;9983;51.114;13.788;2024-02-15T23:00:47;16.42;;;11.20;;
19671;SDS011;9983;51.114;13.788;2024-02-15T23:05:47;15.25;;;11.07;;
19671;SDS011;9983;51.114;13.788;2024-02-15T23:10:47;17.10;;;11.30;;
19671;SDS011;9983;51.114;13.788;2024-02-15T23:15:47;16.60;;;10.13;;
19671;SDS011;9983;51.114;13.788;2024-02-15T23:20:47;15.48;;;10.25;;
19671;SDS011;9983;51.114;13.788;2024-02-15T23:25:47;16.10;;;9.80;;
19671;SDS011;9983;51.114;13.788;2024-02-15T23:30:48;14.00;;;9.38;;
19671;SDS011;9983;51.114;13.788;2024-02-15T23:35:48;16.98;;;10.60;;
19671;SDS011;9983;51.114;13.788;2024-02-15T23:41:08;15.23;;;9.00;;
19671;SDS011;9983;51.114;13.788;2024-02-15T23:46:08;13.20;;;9.65;;
19671;SDS011;9983;51.114;13.788;2024-02-15T23:51:08;15.15;;;9.35;;
19671;SDS011;9983;51.114;13.788;2024-02-15T23:56:08;15.80;;;9.30;;
